Terminal Aerodrome Forecast
Issued by NWS San Angelo, TX

Home | Current Version | Previous Version | Text Only | Print | Product List | Glossary On
Versions: 1 2 3 4 5 6 7 8 9 10 11 12 13 14 15 16 17 18 19 20 21 22 23 24
000
FTUS44 KSJT 230500
TAFABI
TAF
KABI 230520Z 2306/2406 15009KT P6SM SKC
     FM230900 16014KT P6SM SKC
     FM231500 17020KT P6SM BKN250 PROB30 2400/2406 P6SM TS BKN050CB=

USA.gov is the U.S. government's official web portal to all federal, state and local government web resources and services.